Bukhara Airport
UTSB : now visible

Airfield :











YOU CAN JOIN US ON...

 
LOGIN :

Register | Disclaimer

   EN    FR    IT 

 









Legend :    VFR   Marginal VFR   IFR   Intensive IFR   Very Intensive IFR
Visi :
Ceiling :
>= 8 km
>= 3000ft
5 to 8 km
1000 to 3000 ft
1500m to 5 km
500 to 1000 ft
800 to 1500m
200 to 500 ft
< 800m
< 200 ft
Symbols :   Thunderstorms  Fog  Heavy snow  Heavy precipitations  Wind > 20 kt






- Airport Elevation : 751 ft
- IATA code : BHK


UTSB - Bukhara

CURRENT METAR :
  • 260200Z 13006KT CAVOK 14/05 Q1006 R01/CLRD70 NOSIG

EXPIRED METARs :
  • 260130Z 11008KT CAVOK 13/05 Q1006 R01/CLRD70 NOSIG
  • 260100Z 13004KT CAVOK 14/05 Q1007 R01/CLRD70 NOSIG
  • 260030Z 15006KT CAVOK 14/05 Q1007 R01/CLRD70 NOSIG
  • 260000Z 14006KT CAVOK 14/05 Q1007 R01/CLRD70 NOSIG
  • 252330Z 14006KT CAVOK 15/05 Q1007 R01/CLRD70 NOSIG

TAF TAF UTSB
Valid from the 26 at 00:00 until the 27 at 00:00 UTC


252300Z 2600/2624 VRB05KT 7000 SCT050CB
TEMPO 2600/2603 16012G22KT 3000 BR BKN033
TEMPO 2603/2614 24014G24KT 4500 -SHRA BR SCT010 OVC025CB



MET'MAP, your aeronautical weather chart ! - Copyright ORBIFLY December 2007 - Disclaimer

ORBIFLY MET'MAP TEAM :

Programming & Development : Alexandra Zaïnal
Concept & original design : Baudouin d'Aumeries
Assistance for programming : Marc-Olivier Méhu
Technical & hardware support : Manuel Goepfert

Contact : metmap@orbifly.com




SOURCES & CREDITS :

   NOAA       Earth
Advisory